sensor_id;sensor_type;location;lat;lon;timestamp;pressure;altitude;pressure_sealevel;temperature;humidity
11011;BME280;5558;42.702;23.178;2023-08-24T00:00:19;93838.50;;;20.53;100.00
11011;BME280;5558;42.702;23.178;2023-08-24T00:02:46;93830.63;;;20.40;100.00
11011;BME280;5558;42.702;23.178;2023-08-24T00:05:13;93832.44;;;20.27;100.00
11011;BME280;5558;42.702;23.178;2023-08-24T00:07:40;93841.09;;;20.33;100.00
11011;BME280;5558;42.702;23.178;2023-08-24T00:10:06;93830.31;;;20.41;100.00
11011;BME280;5558;42.702;23.178;2023-08-24T00:12:33;93829.88;;;20.39;100.00
11011;BME280;5558;42.702;23.178;2023-08-24T00:15:01;93831.59;;;20.44;100.00
11011;BME280;5558;42.702;23.178;2023-08-24T00:17:29;93822.38;;;20.53;100.00
11011;BME280;5558;42.702;23.178;2023-08-24T00:19:56;93827.81;;;20.36;100.00
11011;BME280;5558;42.702;23.178;2023-08-24T00:22:22;93816.88;;;20.41;100.00
11011;BME280;5558;42.702;23.178;2023-08-24T00:24:49;93818.97;;;20.36;100.00
11011;BME280;5558;42.702;23.178;2023-08-24T00:27:16;93818.00;;;20.32;100.00
11011;BME280;5558;42.702;23.178;2023-08-24T00:29:42;93820.38;;;20.33;100.00
11011;BME280;5558;42.702;23.178;2023-08-24T00:32:10;93818.81;;;20.32;100.00
11011;BME280;5558;42.702;23.178;2023-08-24T00:34:38;93824.22;;;20.24;100.00
11011;BME280;5558;42.702;23.178;2023-08-24T00:37:04;93827.72;;;20.16;100.00
11011;BME280;5558;42.702;23.178;2023-08-24T00:39:31;93818.19;;;20.27;100.00
11011;BME280;5558;42.702;23.178;2023-08-24T00:41:58;93818.50;;;20.34;100.00
11011;BME280;5558;42.702;23.178;2023-08-24T00:44:24;93823.53;;;20.35;100.00
11011;BME280;5558;42.702;23.178;2023-08-24T00:46:51;93826.09;;;20.15;100.00
11011;BME280;5558;42.702;23.178;2023-08-24T00:49:19;93825.03;;;20.16;100.00
11011;BME280;5558;42.702;23.178;2023-08-24T00:51:48;93822.91;;;20.13;100.00
11011;BME280;5558;42.702;23.178;2023-08-24T00:54:15;93830.38;;;20.07;100.00
11011;BME280;5558;42.702;23.178;2023-08-24T00:56:42;93828.47;;;20.08;100.00
11011;BME280;5558;42.702;23.178;2023-08-24T00:59:09;93827.19;;;20.14;100.00
11011;BME280;5558;42.702;23.178;2023-08-24T01:01:37;93821.66;;;20.27;100.00
11011;BME280;5558;42.702;23.178;2023-08-24T01:04:05;93830.31;;;20.41;100.00
11011;BME280;5558;42.702;23.178;2023-08-24T01:06:32;93830.31;;;20.41;100.00
11011;BME280;5558;42.702;23.178;2023-08-24T01:09:01;93824.75;;;20.46;100.00
11011;BME280;5558;42.702;23.178;2023-08-24T01:11:34;93817.47;;;20.55;100.00
11011;BME280;5558;42.702;23.178;2023-08-24T01:14:09;93819.53;;;20.50;100.00
11011;BME280;5558;42.702;23.178;2023-08-24T01:16:41;93794.34;;;20.17;100.00
11011;BME280;5558;42.702;23.178;2023-08-24T01:19:25;93820.56;;;20.20;100.00
11011;BME280;5558;42.702;23.178;2023-08-24T01:21:57;93808.09;;;20.24;100.00
11011;BME280;5558;42.702;23.178;2023-08-24T01:24:35;93814.41;;;20.19;100.00
11011;BME280;5558;42.702;23.178;2023-08-24T01:27:04;93810.44;;;20.08;100.00
11011;BME280;5558;42.702;23.178;2023-08-24T01:29:31;93816.16;;;20.24;100.00
11011;BME280;5558;42.702;23.178;2023-08-24T01:31:58;93813.63;;;20.19;100.00
11011;BME280;5558;42.702;23.178;2023-08-24T01:34:25;93809.50;;;20.21;100.00
11011;BME280;5558;42.702;23.178;2023-08-24T01:36:52;93813.75;;;20.14;100.00
11011;BME280;5558;42.702;23.178;2023-08-24T01:39:28;93812.53;;;19.69;100.00
11011;BME280;5558;42.702;23.178;2023-08-24T01:42:01;93825.34;;;19.72;100.00
11011;BME280;5558;42.702;23.178;2023-08-24T01:44:32;93816.50;;;19.80;100.00
11011;BME280;5558;42.702;23.178;2023-08-24T01:47:03;93823.91;;;19.74;100.00
11011;BME280;5558;42.702;23.178;2023-08-24T01:49:31;93818.22;;;19.76;100.00
11011;BME280;5558;42.702;23.178;2023-08-24T01:52:01;93818.53;;;19.83;100.00
11011;BME280;5558;42.702;23.178;2023-08-24T01:54:28;93823.44;;;19.81;100.00
11011;BME280;5558;42.702;23.178;2023-08-24T01:56:55;93830.56;;;19.77;100.00
11011;BME280;5558;42.702;23.178;2023-08-24T01:59:21;93832.13;;;19.78;100.00
11011;BME280;5558;42.702;23.178;2023-08-24T02:01:49;93828.47;;;19.91;100.00
11011;BME280;5558;42.702;23.178;2023-08-24T02:04:16;93833.41;;;19.80;100.00
11011;BME280;5558;42.702;23.178;2023-08-24T02:06:43;93829.59;;;19.90;100.00
11011;BME280;5558;42.702;23.178;2023-08-24T02:09:09;93830.06;;;19.92;100.00
11011;BME280;5558;42.702;23.178;2023-08-24T02:11:36;93850.13;;;19.86;100.00
11011;BME280;5558;42.702;23.178;2023-08-24T02:14:03;93837.34;;;19.83;100.00
11011;BME280;5558;42.702;23.178;2023-08-24T02:16:30;93839.22;;;19.74;100.00
11011;BME280;5558;42.702;23.178;2023-08-24T02:18:58;93839.06;;;19.36;100.00
11011;BME280;5558;42.702;23.178;2023-08-24T02:21:25;93841.78;;;19.53;100.00
11011;BME280;5558;42.702;23.178;2023-08-24T02:23:51;93839.25;;;19.48;100.00
11011;BME280;5558;42.702;23.178;2023-08-24T02:26:18;93839.38;;;19.34;100.00
11011;BME280;5558;42.702;23.178;2023-08-24T02:28:45;93837.09;;;19.11;100.00
11011;BME280;5558;42.702;23.178;2023-08-24T02:31:12;93817.50;;;19.10;100.00
11011;BME280;5558;42.702;23.178;2023-08-24T02:33:39;93822.56;;;19.12;100.00
11011;BME280;5558;42.702;23.178;2023-08-24T02:36:07;93831.59;;;19.16;100.00
11011;BME280;5558;42.702;23.178;2023-08-24T02:38:34;93826.88;;;19.30;100.00
11011;BME280;5558;42.702;23.178;2023-08-24T02:41:01;93817.75;;;19.31;100.00
11011;BME280;5558;42.702;23.178;2023-08-24T02:43:28;93829.09;;;19.28;100.00
11011;BME280;5558;42.702;23.178;2023-08-24T02:46:00;93814.25;;;19.30;100.00
11011;BME280;5558;42.702;23.178;2023-08-24T02:48:26;93821.38;;;19.35;100.00
11011;BME280;5558;42.702;23.178;2023-08-24T02:50:53;93789.75;;;19.23;100.00
11011;BME280;5558;42.702;23.178;2023-08-24T02:53:21;93815.53;;;19.50;100.00
11011;BME280;5558;42.702;23.178;2023-08-24T02:55:48;93807.78;;;19.49;100.00
11011;BME280;5558;42.702;23.178;2023-08-24T02:58:14;93811.59;;;19.48;100.00
11011;BME280;5558;42.702;23.178;2023-08-24T03:00:41;93816.47;;;19.46;100.00
11011;BME280;5558;42.702;23.178;2023-08-24T03:03:08;93825.50;;;19.50;100.00
11011;BME280;5558;42.702;23.178;2023-08-24T03:05:35;93828.00;;;19.37;100.00
11011;BME280;5558;42.702;23.178;2023-08-24T03:08:02;93822.28;;;19.22;100.00
11011;BME280;5558;42.702;23.178;2023-08-24T03:10:31;93827.16;;;19.20;100.00
11011;BME280;5558;42.702;23.178;2023-08-24T03:12:57;93825.28;;;19.20;100.00
11011;BME280;5558;42.702;23.178;2023-08-24T03:15:24;93828.13;;;19.24;100.00
11011;BME280;5558;42.702;23.178;2023-08-24T03:17:51;93843.59;;;19.27;100.00
11011;BME280;5558;42.702;23.178;2023-08-24T03:20:18;93853.34;;;19.23;100.00
11011;BME280;5558;42.702;23.178;2023-08-24T03:22:45;93846.97;;;19.32;100.00
11011;BME280;5558;42.702;23.178;2023-08-24T03:25:11;93850.72;;;19.31;100.00
11011;BME280;5558;42.702;23.178;2023-08-24T03:27:39;93849.88;;;19.14;100.00
11011;BME280;5558;42.702;23.178;2023-08-24T03:30:07;93856.56;;;18.86;100.00
11011;BME280;5558;42.702;23.178;2023-08-24T03:32:34;93863.78;;;18.68;100.00
11011;BME280;5558;42.702;23.178;2023-08-24T03:35:01;93861.97;;;18.55;100.00
11011;BME280;5558;42.702;23.178;2023-08-24T03:37:28;93865.69;;;18.46;100.00
11011;BME280;5558;42.702;23.178;2023-08-24T03:39:55;93863.94;;;18.41;100.00
11011;BME280;5558;42.702;23.178;2023-08-24T03:42:21;93867.00;;;18.26;100.00
11011;BME280;5558;42.702;23.178;2023-08-24T03:44:50;93876.25;;;18.42;100.00
11011;BME280;5558;42.702;23.178;2023-08-24T03:47:16;93872.44;;;18.65;100.00
11011;BME280;5558;42.702;23.178;2023-08-24T03:49:43;93872.50;;;18.82;100.00
11011;BME280;5558;42.702;23.178;2023-08-24T03:52:10;93872.19;;;18.84;100.00
11011;BME280;5558;42.702;23.178;2023-08-24T03:54:36;93869.41;;;18.58;100.00
11011;BME280;5558;42.702;23.178;2023-08-24T03:57:03;93870.94;;;18.51;100.00
11011;BME280;5558;42.702;23.178;2023-08-24T03:59:30;93871.56;;;18.48;100.00
11011;BME280;5558;42.702;23.178;2023-08-24T04:01:58;93875.75;;;18.40;100.00
11011;BME280;5558;42.702;23.178;2023-08-24T04:04:27;93881.56;;;18.64;100.00
11011;BME280;5558;42.702;23.178;2023-08-24T04:06:54;93867.75;;;18.49;100.00
11011;BME280;5558;42.702;23.178;2023-08-24T04:09:20;93881.34;;;18.52;100.00
11011;BME280;5558;42.702;23.178;2023-08-24T04:11:47;93877.59;;;18.53;100.00
11011;BME280;5558;42.702;23.178;2023-08-24T04:14:14;93876.78;;;18.53;100.00
11011;BME280;5558;42.702;23.178;2023-08-24T04:16:41;93876.97;;;18.56;100.00
11011;BME280;5558;42.702;23.178;2023-08-24T04:19:09;93873.25;;;18.74;100.00
11011;BME280;5558;42.702;23.178;2023-08-24T04:21:36;93868.13;;;18.95;100.00
11011;BME280;5558;42.702;23.178;2023-08-24T04:24:03;93867.84;;;19.05;100.00
11011;BME280;5558;42.702;23.178;2023-08-24T04:26:30;93860.16;;;19.20;100.00
11011;BME280;5558;42.702;23.178;2023-08-24T04:28:57;93866.84;;;19.40;100.00
11011;BME280;5558;42.702;23.178;2023-08-24T04:31:24;93872.09;;;19.62;100.00
11011;BME280;5558;42.702;23.178;2023-08-24T04:33:50;93873.84;;;20.26;100.00
11011;BME280;5558;42.702;23.178;2023-08-24T04:36:18;93884.44;;;21.03;100.00
11011;BME280;5558;42.702;23.178;2023-08-24T04:38:45;93892.56;;;21.82;100.00
11011;BME280;5558;42.702;23.178;2023-08-24T04:41:12;93895.63;;;22.54;100.00
11011;BME280;5558;42.702;23.178;2023-08-24T04:43:38;93898.94;;;23.41;100.00
11011;BME280;5558;42.702;23.178;2023-08-24T04:46:05;93889.44;;;24.35;99.33
11011;BME280;5558;42.702;23.178;2023-08-24T04:48:32;93882.72;;;25.15;90.06
11011;BME280;5558;42.702;23.178;2023-08-24T04:50:59;93886.63;;;25.80;82.82
11011;BME280;5558;42.702;23.178;2023-08-24T04:53:28;93875.16;;;25.86;79.43
11011;BME280;5558;42.702;23.178;2023-08-24T04:55:54;93880.28;;;25.25;85.28
11011;BME280;5558;42.702;23.178;2023-08-24T04:58:21;93877.91;;;25.08;87.84
11011;BME280;5558;42.702;23.178;2023-08-24T05:00:50;93884.97;;;24.82;90.84
11011;BME280;5558;42.702;23.178;2023-08-24T05:03:16;93884.47;;;24.64;91.58
11011;BME280;5558;42.702;23.178;2023-08-24T05:05:44;93879.53;;;24.39;90.21
11011;BME280;5558;42.702;23.178;2023-08-24T05:08:11;93881.28;;;24.19;92.52
11011;BME280;5558;42.702;23.178;2023-08-24T05:10:39;93885.84;;;24.03;95.57
11011;BME280;5558;42.702;23.178;2023-08-24T05:13:06;93884.84;;;23.71;98.34
11011;BME280;5558;42.702;23.178;2023-08-24T05:15:33;93864.38;;;23.46;100.00
11011;BME280;5558;42.702;23.178;2023-08-24T05:18:00;93889.72;;;23.54;99.33
11011;BME280;5558;42.702;23.178;2023-08-24T05:20:26;93896.44;;;23.24;100.00
11011;BME280;5558;42.702;23.178;2023-08-24T05:22:53;93887.06;;;23.09;100.00
11011;BME280;5558;42.702;23.178;2023-08-24T05:25:21;93895.97;;;23.10;100.00
11011;BME280;5558;42.702;23.178;2023-08-24T05:27:49;93900.19;;;22.74;100.00
11011;BME280;5558;42.702;23.178;2023-08-24T05:30:16;93913.25;;;22.84;100.00
11011;BME280;5558;42.702;23.178;2023-08-24T05:32:43;93910.06;;;22.50;100.00
11011;BME280;5558;42.702;23.178;2023-08-24T05:35:09;93917.41;;;22.49;100.00
11011;BME280;5558;42.702;23.178;2023-08-24T05:37:37;93917.09;;;22.63;100.00
11011;BME280;5558;42.702;23.178;2023-08-24T05:40:04;93915.13;;;22.72;100.00
11011;BME280;5558;42.702;23.178;2023-08-24T05:42:31;93918.69;;;22.97;100.00
11011;BME280;5558;42.702;23.178;2023-08-24T05:44:59;93915.78;;;23.26;100.00
11011;BME280;5558;42.702;23.178;2023-08-24T05:47:26;93920.66;;;23.56;100.00
11011;BME280;5558;42.702;23.178;2023-08-24T05:49:53;93923.81;;;23.82;100.00
11011;BME280;5558;42.702;23.178;2023-08-24T05:52:19;93929.00;;;24.12;100.00
11011;BME280;5558;42.702;23.178;2023-08-24T05:54:46;93935.63;;;24.14;96.37
11011;BME280;5558;42.702;23.178;2023-08-24T05:57:12;93928.06;;;24.20;100.00
11011;BME280;5558;42.702;23.178;2023-08-24T05:59:39;93932.81;;;24.50;95.31
11011;BME280;5558;42.702;23.178;2023-08-24T06:02:07;93932.50;;;24.79;90.83
11011;BME280;5558;42.702;23.178;2023-08-24T06:04:34;93938.78;;;24.83;86.25
11011;BME280;5558;42.702;23.178;2023-08-24T06:07:00;93941.50;;;24.83;87.96
11011;BME280;5558;42.702;23.178;2023-08-24T06:09:30;93941.53;;;24.99;83.69
11011;BME280;5558;42.702;23.178;2023-08-24T06:11:57;93940.81;;;25.45;79.94
11011;BME280;5558;42.702;23.178;2023-08-24T06:14:23;93944.47;;;25.84;76.78
11011;BME280;5558;42.702;23.178;2023-08-24T06:16:50;93947.66;;;26.20;73.78
11011;BME280;5558;42.702;23.178;2023-08-24T06:19:20;93935.09;;;26.51;73.47
11011;BME280;5558;42.702;23.178;2023-08-24T06:21:46;93941.47;;;26.96;70.61
11011;BME280;5558;42.702;23.178;2023-08-24T06:24:13;93935.97;;;27.80;65.27
11011;BME280;5558;42.702;23.178;2023-08-24T06:26:40;93918.69;;;28.17;60.43
11011;BME280;5558;42.702;23.178;2023-08-24T06:29:06;93942.16;;;28.55;59.10
11011;BME280;5558;42.702;23.178;2023-08-24T06:31:33;93943.00;;;28.59;58.63
11011;BME280;5558;42.702;23.178;2023-08-24T06:34:00;93942.84;;;28.48;59.46
11011;BME280;5558;42.702;23.178;2023-08-24T06:36:28;93947.41;;;28.41;56.48
11011;BME280;5558;42.702;23.178;2023-08-24T06:38:55;93952.44;;;28.65;56.09
11011;BME280;5558;42.702;23.178;2023-08-24T06:41:21;93948.28;;;28.74;55.40
11011;BME280;5558;42.702;23.178;2023-08-24T06:43:48;93953.16;;;28.92;54.79
11011;BME280;5558;42.702;23.178;2023-08-24T06:46:15;93945.50;;;29.04;54.48
11011;BME280;5558;42.702;23.178;2023-08-24T06:48:42;93958.59;;;29.61;51.31
11011;BME280;5558;42.702;23.178;2023-08-24T06:51:10;93947.44;;;30.24;47.99
11011;BME280;5558;42.702;23.178;2023-08-24T06:53:38;93948.50;;;30.77;47.53
11011;BME280;5558;42.702;23.178;2023-08-24T06:56:05;93955.09;;;32.22;43.27
11011;BME280;5558;42.702;23.178;2023-08-24T06:58:31;93955.16;;;33.40;40.18
11011;BME280;5558;42.702;23.178;2023-08-24T07:00:58;93946.53;;;34.03;39.04
11011;BME280;5558;42.702;23.178;2023-08-24T07:03:25;93946.78;;;35.01;35.96
11011;BME280;5558;42.702;23.178;2023-08-24T07:05:52;93941.69;;;35.29;35.27
11011;BME280;5558;42.702;23.178;2023-08-24T07:08:19;93938.47;;;35.65;34.54
11011;BME280;5558;42.702;23.178;2023-08-24T07:10:47;93935.84;;;35.81;34.50
11011;BME280;5558;42.702;23.178;2023-08-24T07:13:14;93925.00;;;35.70;34.71
11011;BME280;5558;42.702;23.178;2023-08-24T07:15:41;93930.31;;;35.57;34.69
11011;BME280;5558;42.702;23.178;2023-08-24T07:18:07;93911.41;;;35.29;34.40
11011;BME280;5558;42.702;23.178;2023-08-24T07:20:34;93922.00;;;35.31;34.57
11011;BME280;5558;42.702;23.178;2023-08-24T07:23:01;93922.97;;;35.17;34.35
11011;BME280;5558;42.702;23.178;2023-08-24T07:25:28;93924.50;;;34.51;34.82
11011;BME280;5558;42.702;23.178;2023-08-24T07:27:56;93925.25;;;34.14;35.32
11011;BME280;5558;42.702;23.178;2023-08-24T07:30:25;93914.41;;;33.93;35.79
11011;BME280;5558;42.702;23.178;2023-08-24T07:32:52;93921.53;;;33.84;35.07
11011;BME280;5558;42.702;23.178;2023-08-24T07:35:19;93918.09;;;33.73;36.23
11011;BME280;5558;42.702;23.178;2023-08-24T07:37:46;93923.09;;;33.23;38.45
11011;BME280;5558;42.702;23.178;2023-08-24T07:40:13;93924.00;;;32.95;37.85
11011;BME280;5558;42.702;23.178;2023-08-24T07:42:43;93915.31;;;33.11;37.84
11011;BME280;5558;42.702;23.178;2023-08-24T07:45:12;93923.41;;;33.43;37.01
11011;BME280;5558;42.702;23.178;2023-08-24T07:47:40;93917.50;;;33.37;35.48
11011;BME280;5558;42.702;23.178;2023-08-24T07:50:07;93921.34;;;33.57;35.17
11011;BME280;5558;42.702;23.178;2023-08-24T07:52:36;93917.22;;;33.24;35.72
11011;BME280;5558;42.702;23.178;2023-08-24T07:55:03;93923.81;;;33.30;36.99
11011;BME280;5558;42.702;23.178;2023-08-24T07:57:30;93924.56;;;33.49;35.14
11011;BME280;5558;42.702;23.178;2023-08-24T07:59:57;93925.25;;;33.60;35.34
11011;BME280;5558;42.702;23.178;2023-08-24T08:02:26;93923.78;;;33.38;35.08
11011;BME280;5558;42.702;23.178;2023-08-24T08:04:56;93916.34;;;33.38;34.14
11011;BME280;5558;42.702;23.178;2023-08-24T08:07:23;93928.06;;;33.49;33.76
11011;BME280;5558;42.702;23.178;2023-08-24T08:09:51;93927.75;;;33.29;34.76
11011;BME280;5558;42.702;23.178;2023-08-24T08:12:17;93925.09;;;33.12;34.80
11011;BME280;5558;42.702;23.178;2023-08-24T08:14:44;93921.22;;;33.09;35.75
11011;BME280;5558;42.702;23.178;2023-08-24T08:17:11;93925.50;;;33.10;35.07
11011;BME280;5558;42.702;23.178;2023-08-24T08:19:39;93916.91;;;33.05;35.62
11011;BME280;5558;42.702;23.178;2023-08-24T08:22:06;93914.94;;;33.05;36.15
11011;BME280;5558;42.702;23.178;2023-08-24T08:24:33;93915.75;;;33.06;35.77
11011;BME280;5558;42.702;23.178;2023-08-24T08:26:59;93915.69;;;33.16;35.14
11011;BME280;5558;42.702;23.178;2023-08-24T08:29:26;93921.34;;;32.78;35.36
11011;BME280;5558;42.702;23.178;2023-08-24T08:31:53;93914.66;;;32.79;36.36
11011;BME280;5558;42.702;23.178;2023-08-24T08:34:19;93905.75;;;32.43;37.17
11011;BME280;5558;42.702;23.178;2023-08-24T08:36:47;93907.75;;;32.18;36.86
11011;BME280;5558;42.702;23.178;2023-08-24T08:39:14;93901.06;;;32.44;37.13
11011;BME280;5558;42.702;23.178;2023-08-24T08:41:43;93896.28;;;32.72;36.81
11011;BME280;5558;42.702;23.178;2023-08-24T08:44:13;93895.47;;;32.72;37.30
11011;BME280;5558;42.702;23.178;2023-08-24T08:46:41;93893.63;;;32.34;38.97
11011;BME280;5558;42.702;23.178;2023-08-24T08:49:07;93889.38;;;32.15;38.59
11011;BME280;5558;42.702;23.178;2023-08-24T08:51:35;93891.31;;;31.58;40.14
11011;BME280;5558;42.702;23.178;2023-08-24T08:54:05;93890.16;;;32.01;39.03
11011;BME280;5558;42.702;23.178;2023-08-24T08:56:32;93890.91;;;32.19;39.07
11011;BME280;5558;42.702;23.178;2023-08-24T08:58:59;93890.13;;;32.22;39.35
11011;BME280;5558;42.702;23.178;2023-08-24T09:01:27;93888.19;;;31.35;39.95
11011;BME280;5558;42.702;23.178;2023-08-24T09:03:54;93881.13;;;31.34;39.79
11011;BME280;5558;42.702;23.178;2023-08-24T09:06:21;93879.97;;;31.53;40.59
11011;BME280;5558;42.702;23.178;2023-08-24T09:08:48;93871.75;;;31.74;39.58
11011;BME280;5558;42.702;23.178;2023-08-24T09:11:17;93869.03;;;31.60;41.77
11011;BME280;5558;42.702;23.178;2023-08-24T09:13:44;93863.13;;;31.30;40.85
11011;BME280;5558;42.702;23.178;2023-08-24T09:16:11;93864.72;;;31.55;39.52
11011;BME280;5558;42.702;23.178;2023-08-24T09:18:43;93858.06;;;31.74;39.44
11011;BME280;5558;42.702;23.178;2023-08-24T09:21:11;93862.75;;;31.63;40.15
11011;BME280;5558;42.702;23.178;2023-08-24T09:23:43;93849.47;;;31.96;40.46
11011;BME280;5558;42.702;23.178;2023-08-24T09:26:10;93853.78;;;31.97;38.91
11011;BME280;5558;42.702;23.178;2023-08-24T09:28:42;93836.50;;;32.22;39.07
11011;BME280;5558;42.702;23.178;2023-08-24T09:31:09;93841.94;;;32.43;37.75
11011;BME280;5558;42.702;23.178;2023-08-24T09:33:36;93838.00;;;32.47;38.29
11011;BME280;5558;42.702;23.178;2023-08-24T09:36:06;93841.22;;;32.10;39.59
11011;BME280;5558;42.702;23.178;2023-08-24T09:38:33;93844.00;;;31.79;39.67
11011;BME280;5558;42.702;23.178;2023-08-24T09:41:01;93830.72;;;31.42;39.11
11011;BME280;5558;42.702;23.178;2023-08-24T09:43:30;93831.88;;;31.41;39.81
11011;BME280;5558;42.702;23.178;2023-08-24T09:45:58;93799.03;;;31.52;40.87
11011;BME280;5558;42.702;23.178;2023-08-24T09:48:25;93823.25;;;31.88;39.50
11011;BME280;5558;42.702;23.178;2023-08-24T09:50:52;93814.25;;;31.84;38.54
11011;BME280;5558;42.702;23.178;2023-08-24T09:53:20;93813.81;;;32.14;39.60
11011;BME280;5558;42.702;23.178;2023-08-24T09:55:52;93827.13;;;32.08;37.30
11011;BME280;5558;42.702;23.178;2023-08-24T09:58:20;93822.09;;;32.00;37.25
11011;BME280;5558;42.702;23.178;2023-08-24T10:00:49;93816.25;;;31.45;37.38
11011;BME280;5558;42.702;23.178;2023-08-24T10:03:18;93817.41;;;31.65;36.83
11011;BME280;5558;42.702;23.178;2023-08-24T10:05:48;93811.09;;;32.03;36.98
11011;BME280;5558;42.702;23.178;2023-08-24T10:08:20;93813.69;;;32.53;36.42
11011;BME280;5558;42.702;23.178;2023-08-24T10:10:50;93815.09;;;32.89;35.61
11011;BME280;5558;42.702;23.178;2023-08-24T10:13:24;93807.47;;;33.17;34.79
11011;BME280;5558;42.702;23.178;2023-08-24T10:15:53;93803.59;;;33.11;34.89
11011;BME280;5558;42.702;23.178;2023-08-24T10:18:23;93798.91;;;33.08;35.08
11011;BME280;5558;42.702;23.178;2023-08-24T10:20:52;93794.97;;;33.13;34.45
11011;BME280;5558;42.702;23.178;2023-08-24T10:23:19;93798.53;;;33.58;34.19
11011;BME280;5558;42.702;23.178;2023-08-24T10:25:46;93806.50;;;33.89;33.95
11011;BME280;5558;42.702;23.178;2023-08-24T10:28:14;93802.06;;;33.62;34.31
11011;BME280;5558;42.702;23.178;2023-08-24T10:30:41;93796.69;;;33.88;33.68
11011;BME280;5558;42.702;23.178;2023-08-24T10:33:10;93784.72;;;34.09;33.15
11011;BME280;5558;42.702;23.178;2023-08-24T10:35:39;93780.53;;;33.97;32.52
11011;BME280;5558;42.702;23.178;2023-08-24T10:38:07;93780.97;;;33.96;33.27
11011;BME280;5558;42.702;23.178;2023-08-24T10:40:36;93782.38;;;33.19;33.46
11011;BME280;5558;42.702;23.178;2023-08-24T10:43:05;93779.22;;;33.20;34.18
11011;BME280;5558;42.702;23.178;2023-08-24T10:45:55;93795.19;;;32.78;34.44
11011;BME280;5558;42.702;23.178;2023-08-24T10:48:23;93788.25;;;32.52;35.86
11011;BME280;5558;42.702;23.178;2023-08-24T10:51:23;93787.59;;;32.09;35.85
11011;BME280;5558;42.702;23.178;2023-08-24T10:53:53;93808.00;;;31.07;37.11
11011;BME280;5558;42.702;23.178;2023-08-24T10:56:20;93804.69;;;30.48;38.63
11011;BME280;5558;42.702;23.178;2023-08-24T10:59:10;93804.63;;;29.66;40.86
11011;BME280;5558;42.702;23.178;2023-08-24T11:01:39;93814.84;;;29.25;42.41
11011;BME280;5558;42.702;23.178;2023-08-24T11:04:06;93805.56;;;28.90;43.88
11011;BME280;5558;42.702;23.178;2023-08-24T11:06:34;93788.97;;;28.68;45.03
11011;BME280;5558;42.702;23.178;2023-08-24T11:09:08;93792.00;;;28.27;47.36
11011;BME280;5558;42.702;23.178;2023-08-24T11:11:39;93796.94;;;27.88;49.48
11011;BME280;5558;42.702;23.178;2023-08-24T11:14:16;93774.69;;;27.83;49.80
11011;BME280;5558;42.702;23.178;2023-08-24T11:16:45;93781.47;;;27.66;50.99
11011;BME280;5558;42.702;23.178;2023-08-24T11:19:13;93787.94;;;27.84;51.47
11011;BME280;5558;42.702;23.178;2023-08-24T11:21:42;93790.03;;;27.94;51.38
11011;BME280;5558;42.702;23.178;2023-08-24T11:24:09;93787.63;;;28.19;51.39
11011;BME280;5558;42.702;23.178;2023-08-24T11:26:39;93786.50;;;28.23;50.62
11011;BME280;5558;42.702;23.178;2023-08-24T11:29:07;93781.53;;;27.96;53.14
11011;BME280;5558;42.702;23.178;2023-08-24T11:31:35;93785.63;;;27.86;53.46
11011;BME280;5558;42.702;23.178;2023-08-24T11:34:02;93779.50;;;27.63;55.13
11011;BME280;5558;42.702;23.178;2023-08-24T11:36:29;93777.19;;;27.91;53.12
11011;BME280;5558;42.702;23.178;2023-08-24T11:38:59;93776.09;;;27.99;53.70
11011;BME280;5558;42.702;23.178;2023-08-24T11:41:26;93776.38;;;28.20;51.13
11011;BME280;5558;42.702;23.178;2023-08-24T11:44:00;93747.88;;;27.81;53.99
11011;BME280;5558;42.702;23.178;2023-08-24T11:46:28;93747.88;;;27.81;53.99
11011;BME280;5558;42.702;23.178;2023-08-24T11:48:57;93780.28;;;28.19;52.15
11011;BME280;5558;42.702;23.178;2023-08-24T11:51:24;93774.03;;;28.19;52.52
11011;BME280;5558;42.702;23.178;2023-08-24T11:53:51;93771.97;;;28.45;50.56
11011;BME280;5558;42.702;23.178;2023-08-24T11:56:19;93769.03;;;28.57;52.03
11011;BME280;5558;42.702;23.178;2023-08-24T11:58:48;93761.56;;;28.51;51.83
11011;BME280;5558;42.702;23.178;2023-08-24T12:01:16;93758.16;;;28.61;52.41
11011;BME280;5558;42.702;23.178;2023-08-24T12:03:43;93754.13;;;28.88;51.64
11011;BME280;5558;42.702;23.178;2023-08-24T12:06:11;93756.38;;;29.23;50.15
11011;BME280;5558;42.702;23.178;2023-08-24T12:08:39;93750.66;;;29.38;50.42
11011;BME280;5558;42.702;23.178;2023-08-24T12:11:13;93752.91;;;29.26;49.53
11011;BME280;5558;42.702;23.178;2023-08-24T12:13:46;93754.63;;;28.97;49.41
11011;BME280;5558;42.702;23.178;2023-08-24T12:16:14;93754.66;;;28.60;51.28
11011;BME280;5558;42.702;23.178;2023-08-24T12:18:49;93728.53;;;28.19;49.76
11011;BME280;5558;42.702;23.178;2023-08-24T12:21:17;93748.53;;;28.01;49.48
11011;BME280;5558;42.702;23.178;2023-08-24T12:23:44;93744.19;;;27.96;47.39
11011;BME280;5558;42.702;23.178;2023-08-24T12:26:17;93745.31;;;27.92;47.09
11011;BME280;5558;42.702;23.178;2023-08-24T12:28:50;93751.13;;;28.23;46.88
11011;BME280;5558;42.702;23.178;2023-08-24T12:31:17;93752.50;;;28.43;45.93
11011;BME280;5558;42.702;23.178;2023-08-24T12:33:45;93754.34;;;28.69;44.81
11011;BME280;5558;42.702;23.178;2023-08-24T12:36:12;93755.81;;;29.03;44.80
11011;BME280;5558;42.702;23.178;2023-08-24T12:38:39;93755.66;;;29.26;45.72
11011;BME280;5558;42.702;23.178;2023-08-24T12:41:09;93751.94;;;29.55;45.79
11011;BME280;5558;42.702;23.178;2023-08-24T12:43:37;93743.78;;;29.62;44.55
11011;BME280;5558;42.702;23.178;2023-08-24T12:46:06;93755.69;;;29.98;44.17
11011;BME280;5558;42.702;23.178;2023-08-24T12:48:34;93745.16;;;29.92;42.97
11011;BME280;5558;42.702;23.178;2023-08-24T12:51:01;93748.66;;;29.93;41.70
11011;BME280;5558;42.702;23.178;2023-08-24T12:53:28;93742.00;;;29.87;43.47
11011;BME280;5558;42.702;23.178;2023-08-24T12:55:56;93741.59;;;29.81;42.21
11011;BME280;5558;42.702;23.178;2023-08-24T12:58:25;93745.84;;;29.79;42.67